sensor_id;sensor_type;location;lat;lon;timestamp;pressure;altitude;pressure_sealevel;temperature;humidity
79703;BME280;69172;52.352;5.006;2024-02-23T00:00:45;98558.66;;;5.75;100.00
79703;BME280;69172;52.352;5.006;2024-02-23T00:03:11;98572.16;;;5.73;100.00
79703;BME280;69172;52.352;5.006;2024-02-23T00:05:38;98581.53;;;5.74;100.00
79703;BME280;69172;52.352;5.006;2024-02-23T00:08:04;98574.91;;;5.79;100.00
79703;BME280;69172;52.352;5.006;2024-02-23T00:10:30;98590.69;;;5.89;100.00
79703;BME280;69172;52.352;5.006;2024-02-23T00:12:56;98588.41;;;5.97;100.00
79703;BME280;69172;52.352;5.006;2024-02-23T00:15:21;98587.50;;;5.95;100.00
79703;BME280;69172;52.352;5.006;2024-02-23T00:17:46;98582.41;;;5.95;100.00
79703;BME280;69172;52.352;5.006;2024-02-23T00:20:13;98609.75;;;5.99;100.00
79703;BME280;69172;52.352;5.006;2024-02-23T00:22:40;98593.63;;;6.00;100.00
79703;BME280;69172;52.352;5.006;2024-02-23T00:25:07;98606.38;;;6.00;100.00
79703;BME280;69172;52.352;5.006;2024-02-23T00:27:33;98605.63;;;6.03;100.00
79703;BME280;69172;52.352;5.006;2024-02-23T00:29:58;98609.69;;;5.97;100.00
79703;BME280;69172;52.352;5.006;2024-02-23T00:32:24;98618.38;;;6.03;100.00
79703;BME280;69172;52.352;5.006;2024-02-23T00:34:49;98637.28;;;6.08;100.00
79703;BME280;69172;52.352;5.006;2024-02-23T00:37:17;98627.00;;;6.06;100.00
79703;BME280;69172;52.352;5.006;2024-02-23T00:39:43;98631.19;;;6.04;100.00
79703;BME280;69172;52.352;5.006;2024-02-23T00:42:10;98631.25;;;6.06;100.00
79703;BME280;69172;52.352;5.006;2024-02-23T00:44:42;98633.69;;;6.03;100.00
79703;BME280;69172;52.352;5.006;2024-02-23T00:47:09;98643.06;;;6.04;100.00
79703;BME280;69172;52.352;5.006;2024-02-23T00:49:34;98642.09;;;6.00;100.00
79703;BME280;69172;52.352;5.006;2024-02-23T00:52:00;98653.22;;;6.02;100.00
79703;BME280;69172;52.352;5.006;2024-02-23T00:54:31;98652.44;;;6.03;100.00
79703;BME280;69172;52.352;5.006;2024-02-23T00:56:57;98642.22;;;6.03;100.00
79703;BME280;69172;52.352;5.006;2024-02-23T00:59:22;98635.22;;;5.97;100.00
79703;BME280;69172;52.352;5.006;2024-02-23T01:01:48;98644.41;;;5.94;100.00
79703;BME280;69172;52.352;5.006;2024-02-23T01:04:14;98653.06;;;5.97;100.00
79703;BME280;69172;52.352;5.006;2024-02-23T01:06:40;98646.16;;;5.95;100.00
79703;BME280;69172;52.352;5.006;2024-02-23T01:09:05;98658.94;;;5.95;100.00
79703;BME280;69172;52.352;5.006;2024-02-23T01:11:31;98659.00;;;5.98;100.00
79703;BME280;69172;52.352;5.006;2024-02-23T01:13:56;98648.59;;;5.92;100.00
79703;BME280;69172;52.352;5.006;2024-02-23T01:16:22;98687.03;;;5.96;100.00
79703;BME280;69172;52.352;5.006;2024-02-23T01:18:48;98679.22;;;5.92;100.00
79703;BME280;69172;52.352;5.006;2024-02-23T01:21:14;98674.66;;;5.85;100.00
79703;BME280;69172;52.352;5.006;2024-02-23T01:23:40;98685.91;;;5.90;100.00
79703;BME280;69172;52.352;5.006;2024-02-23T01:26:07;98684.78;;;5.83;100.00
79703;BME280;69172;52.352;5.006;2024-02-23T01:28:38;98683.03;;;5.82;100.00
79703;BME280;69172;52.352;5.006;2024-02-23T01:31:03;98710.38;;;5.85;100.00
79703;BME280;69172;52.352;5.006;2024-02-23T01:33:30;98695.53;;;5.76;100.00
79703;BME280;69172;52.352;5.006;2024-02-23T01:35:55;98687.22;;;5.80;100.00
79703;BME280;69172;52.352;5.006;2024-02-23T01:38:24;98709.47;;;5.84;100.00
79703;BME280;69172;52.352;5.006;2024-02-23T01:40:50;98711.53;;;5.93;100.00
79703;BME280;69172;52.352;5.006;2024-02-23T01:43:16;98707.94;;;5.88;100.00
79703;BME280;69172;52.352;5.006;2024-02-23T01:45:42;98699.09;;;5.80;100.00
79703;BME280;69172;52.352;5.006;2024-02-23T01:48:07;98709.47;;;5.84;100.00
79703;BME280;69172;52.352;5.006;2024-02-23T01:50:40;98732.53;;;5.86;100.00
79703;BME280;69172;52.352;5.006;2024-02-23T01:53:06;98724.91;;;5.87;100.00
79703;BME280;69172;52.352;5.006;2024-02-23T01:55:34;98730.84;;;5.86;100.00
79703;BME280;69172;52.352;5.006;2024-02-23T01:58:01;98702.75;;;5.66;100.00
79703;BME280;69172;52.352;5.006;2024-02-23T02:00:26;98720.06;;;5.73;100.00
79703;BME280;69172;52.352;5.006;2024-02-23T02:02:52;98725.97;;;5.72;100.00
79703;BME280;69172;52.352;5.006;2024-02-23T02:05:17;98730.31;;;5.74;100.00
79703;BME280;69172;52.352;5.006;2024-02-23T02:07:44;98731.22;;;5.76;100.00
79703;BME280;69172;52.352;5.006;2024-02-23T02:10:13;98724.47;;;5.77;100.00
79703;BME280;69172;52.352;5.006;2024-02-23T02:12:38;98719.19;;;5.72;100.00
79703;BME280;69172;52.352;5.006;2024-02-23T02:15:23;98741.25;;;5.72;100.00
79703;BME280;69172;52.352;5.006;2024-02-23T02:17:50;98730.88;;;5.67;100.00
79703;BME280;69172;52.352;5.006;2024-02-23T02:20:18;98730.06;;;5.68;100.00
79703;BME280;69172;52.352;5.006;2024-02-23T02:22:48;98735.28;;;5.71;100.00
79703;BME280;69172;52.352;5.006;2024-02-23T02:25:20;98731.75;;;5.68;100.00
79703;BME280;69172;52.352;5.006;2024-02-23T02:27:52;98736.25;;;5.73;100.00
79703;BME280;69172;52.352;5.006;2024-02-23T02:30:19;98737.91;;;5.73;100.00
79703;BME280;69172;52.352;5.006;2024-02-23T02:32:45;98745.50;;;5.71;100.00
79703;BME280;69172;52.352;5.006;2024-02-23T02:35:11;98746.38;;;5.72;100.00
79703;BME280;69172;52.352;5.006;2024-02-23T02:37:37;98736.25;;;5.73;100.00
79703;BME280;69172;52.352;5.006;2024-02-23T02:40:05;98752.59;;;5.78;100.00
79703;BME280;69172;52.352;5.006;2024-02-23T02:42:35;98749.09;;;5.76;100.00
79703;BME280;69172;52.352;5.006;2024-02-23T02:45:01;98753.41;;;5.77;100.00
79703;BME280;69172;52.352;5.006;2024-02-23T02:47:28;98749.84;;;5.74;100.00
79703;BME280;69172;52.352;5.006;2024-02-23T02:49:59;98758.38;;;5.74;100.00
79703;BME280;69172;52.352;5.006;2024-02-23T02:52:25;98754.81;;;5.71;100.00
79703;BME280;69172;52.352;5.006;2024-02-23T02:54:52;98757.06;;;5.63;100.00
79703;BME280;69172;52.352;5.006;2024-02-23T02:57:17;98767.88;;;5.58;100.00
79703;BME280;69172;52.352;5.006;2024-02-23T02:59:43;98759.78;;;5.47;100.00
79703;BME280;69172;52.352;5.006;2024-02-23T03:02:09;98782.38;;;5.59;100.00
79703;BME280;69172;52.352;5.006;2024-02-23T03:04:35;98760.84;;;5.52;100.00
79703;BME280;69172;52.352;5.006;2024-02-23T03:07:01;98772.84;;;5.55;100.00
79703;BME280;69172;52.352;5.006;2024-02-23T03:09:27;98770.19;;;5.52;100.00
79703;BME280;69172;52.352;5.006;2024-02-23T03:12:05;98778.91;;;5.57;100.00
79703;BME280;69172;52.352;5.006;2024-02-23T03:14:44;98768.63;;;5.55;100.00
79703;BME280;69172;52.352;5.006;2024-02-23T03:17:10;98769.53;;;5.57;100.00
79703;BME280;69172;52.352;5.006;2024-02-23T03:19:37;98775.78;;;5.64;100.00
79703;BME280;69172;52.352;5.006;2024-02-23T03:25:24;98770.22;;;5.53;100.00
79703;BME280;69172;52.352;5.006;2024-02-23T03:31:19;98812.56;;;5.50;100.00
79703;BME280;69172;52.352;5.006;2024-02-23T03:33:45;98800.72;;;5.12;100.00
79703;BME280;69172;52.352;5.006;2024-02-23T03:36:10;98802.13;;;5.05;100.00
79703;BME280;69172;52.352;5.006;2024-02-23T03:38:37;98799.19;;;4.96;100.00
79703;BME280;69172;52.352;5.006;2024-02-23T03:41:02;98792.59;;;4.82;100.00
79703;BME280;69172;52.352;5.006;2024-02-23T03:43:28;98802.19;;;4.88;100.00
79703;BME280;69172;52.352;5.006;2024-02-23T03:45:53;98802.31;;;4.91;100.00
79703;BME280;69172;52.352;5.006;2024-02-23T03:48:18;98799.09;;;4.75;100.00
79703;BME280;69172;52.352;5.006;2024-02-23T03:50:44;98815.06;;;4.91;100.00
79703;BME280;69172;52.352;5.006;2024-02-23T03:53:09;98804.06;;;4.92;100.00
79703;BME280;69172;52.352;5.006;2024-02-23T03:55:35;98809.69;;;5.04;100.00
79703;BME280;69172;52.352;5.006;2024-02-23T03:58:00;98808.91;;;5.05;100.00
79703;BME280;69172;52.352;5.006;2024-02-23T04:00:25;98808.69;;;5.00;100.00
79703;BME280;69172;52.352;5.006;2024-02-23T04:02:51;98824.19;;;5.05;100.00
79703;BME280;69172;52.352;5.006;2024-02-23T04:05:17;98813.84;;;5.02;100.00
79703;BME280;69172;52.352;5.006;2024-02-23T04:07:44;98823.50;;;5.09;100.00
79703;BME280;69172;52.352;5.006;2024-02-23T04:10:09;98823.00;;;5.16;100.00
79703;BME280;69172;52.352;5.006;2024-02-23T04:12:36;98823.50;;;5.09;100.00
79703;BME280;69172;52.352;5.006;2024-02-23T04:15:01;98819.97;;;5.05;100.00
79703;BME280;69172;52.352;5.006;2024-02-23T04:17:26;98824.09;;;5.03;100.00
79703;BME280;69172;52.352;5.006;2024-02-23T04:19:52;98822.16;;;4.98;100.00
79703;BME280;69172;52.352;5.006;2024-02-23T04:22:17;98820.88;;;4.88;100.00
79703;BME280;69172;52.352;5.006;2024-02-23T04:24:43;98814.63;;;4.81;100.00
79703;BME280;69172;52.352;5.006;2024-02-23T04:27:09;98831.72;;;4.84;100.00
79703;BME280;69172;52.352;5.006;2024-02-23T04:29:34;98825.53;;;4.79;100.00
79703;BME280;69172;52.352;5.006;2024-02-23T04:32:01;98831.47;;;4.78;100.00
79703;BME280;69172;52.352;5.006;2024-02-23T04:34:28;98831.38;;;4.76;100.00
79703;BME280;69172;52.352;5.006;2024-02-23T04:36:54;98842.38;;;4.75;100.00
79703;BME280;69172;52.352;5.006;2024-02-23T04:39:20;98830.28;;;4.71;100.00
79703;BME280;69172;52.352;5.006;2024-02-23T04:41:45;98844.94;;;4.75;100.00
79703;BME280;69172;52.352;5.006;2024-02-23T04:44:11;98841.66;;;4.78;100.00
79703;BME280;69172;52.352;5.006;2024-02-23T04:46:42;98847.38;;;4.74;100.00
79703;BME280;69172;52.352;5.006;2024-02-23T04:49:07;98844.94;;;4.75;100.00
79703;BME280;69172;52.352;5.006;2024-02-23T04:51:34;98829.66;;;4.58;100.00
79703;BME280;69172;52.352;5.006;2024-02-23T04:54:01;98843.63;;;4.66;100.00
79703;BME280;69172;52.352;5.006;2024-02-23T04:56:28;98843.41;;;4.61;100.00
79703;BME280;69172;52.352;5.006;2024-02-23T04:58:55;98837.16;;;4.55;100.00
79703;BME280;69172;52.352;5.006;2024-02-23T05:01:21;98848.28;;;4.57;100.00
79703;BME280;69172;52.352;5.006;2024-02-23T05:03:46;98857.88;;;4.62;100.00
79703;BME280;69172;52.352;5.006;2024-02-23T05:06:12;98851.63;;;4.56;100.00
79703;BME280;69172;52.352;5.006;2024-02-23T05:08:38;98856.63;;;4.54;100.00
79703;BME280;69172;52.352;5.006;2024-02-23T05:11:03;98846.00;;;4.63;100.00
79703;BME280;69172;52.352;5.006;2024-02-23T05:13:29;98846.22;;;4.67;100.00
79703;BME280;69172;52.352;5.006;2024-02-23T05:15:56;98850.53;;;4.68;100.00
79703;BME280;69172;52.352;5.006;2024-02-23T05:18:22;98848.84;;;4.69;100.00
79703;BME280;69172;52.352;5.006;2024-02-23T05:20:48;98853.25;;;4.73;100.00
79703;BME280;69172;52.352;5.006;2024-02-23T05:23:15;98845.56;;;4.71;100.00
79703;BME280;69172;52.352;5.006;2024-02-23T05:25:42;98869.72;;;4.79;100.00
79703;BME280;69172;52.352;5.006;2024-02-23T05:28:07;98853.56;;;4.79;100.00
79703;BME280;69172;52.352;5.006;2024-02-23T05:30:38;98858.06;;;4.85;100.00
79703;BME280;69172;52.352;5.006;2024-02-23T05:33:04;98849.41;;;4.81;100.00
79703;BME280;69172;52.352;5.006;2024-02-23T05:35:30;98851.00;;;4.79;100.00
79703;BME280;69172;52.352;5.006;2024-02-23T05:37:55;98856.94;;;4.78;100.00
79703;BME280;69172;52.352;5.006;2024-02-23T05:40:22;98852.47;;;4.74;100.00
79703;BME280;69172;52.352;5.006;2024-02-23T05:42:47;98847.25;;;4.71;100.00
79703;BME280;69172;52.352;5.006;2024-02-23T05:45:12;98831.63;;;4.63;100.00
79703;BME280;69172;52.352;5.006;2024-02-23T05:47:38;98847.03;;;4.66;100.00
79703;BME280;69172;52.352;5.006;2024-02-23T05:50:04;98847.97;;;4.68;100.00
79703;BME280;69172;52.352;5.006;2024-02-23T05:52:35;98842.00;;;4.68;100.00
79703;BME280;69172;52.352;5.006;2024-02-23T05:55:01;98833.81;;;4.56;100.00
79703;BME280;69172;52.352;5.006;2024-02-23T05:57:28;98841.94;;;4.66;100.00
79703;BME280;69172;52.352;5.006;2024-02-23T05:59:53;98847.78;;;4.64;100.00
79703;BME280;69172;52.352;5.006;2024-02-23T06:02:20;98833.22;;;4.61;100.00
79703;BME280;69172;52.352;5.006;2024-02-23T06:04:46;98836.03;;;4.67;100.00
79703;BME280;69172;52.352;5.006;2024-02-23T06:07:11;98825.78;;;4.66;100.00
79703;BME280;69172;52.352;5.006;2024-02-23T06:09:36;98836.91;;;4.86;100.00
79703;BME280;69172;52.352;5.006;2024-02-23T06:12:09;98848.16;;;4.91;100.00
79703;BME280;69172;52.352;5.006;2024-02-23T06:14:37;98839.94;;;4.96;100.00
79703;BME280;69172;52.352;5.006;2024-02-23T06:17:02;98833.97;;;4.96;100.00
79703;BME280;69172;52.352;5.006;2024-02-23T06:19:29;98840.13;;;5.01;100.00
79703;BME280;69172;52.352;5.006;2024-02-23T06:21:54;98833.44;;;5.03;100.00
79703;BME280;69172;52.352;5.006;2024-02-23T06:24:19;98837.06;;;5.08;100.00
79703;BME280;69172;52.352;5.006;2024-02-23T06:26:45;98845.63;;;5.10;100.00
79703;BME280;69172;52.352;5.006;2024-02-23T06:29:11;98850.94;;;5.14;100.00
79703;BME280;69172;52.352;5.006;2024-02-23T06:31:39;98858.66;;;5.16;100.00
79703;BME280;69172;52.352;5.006;2024-02-23T06:34:05;98849.34;;;5.16;100.00
79703;BME280;69172;52.352;5.006;2024-02-23T06:36:32;98850.28;;;5.18;100.00
79703;BME280;69172;52.352;5.006;2024-02-23T06:38:58;98846.16;;;5.22;100.00
79703;BME280;69172;52.352;5.006;2024-02-23T06:41:23;98856.59;;;5.26;100.00
79703;BME280;69172;52.352;5.006;2024-02-23T06:43:48;98865.75;;;5.23;100.00
79703;BME280;69172;52.352;5.006;2024-02-23T06:46:14;98862.34;;;5.22;100.00
79703;BME280;69172;52.352;5.006;2024-02-23T06:48:39;98859.00;;;5.23;100.00
79703;BME280;69172;52.352;5.006;2024-02-23T06:51:07;98854.78;;;5.24;100.00
79703;BME280;69172;52.352;5.006;2024-02-23T06:53:36;98865.63;;;5.20;100.00
79703;BME280;69172;52.352;5.006;2024-02-23T06:56:04;98855.28;;;5.17;100.00
79703;BME280;69172;52.352;5.006;2024-02-23T06:58:31;98850.19;;;5.17;100.00
79703;BME280;69172;52.352;5.006;2024-02-23T07:00:57;98866.09;;;5.30;100.00
79703;BME280;69172;52.352;5.006;2024-02-23T07:03:23;98860.84;;;5.27;100.00
79703;BME280;69172;52.352;5.006;2024-02-23T07:05:49;98866.09;;;5.30;100.00
79703;BME280;69172;52.352;5.006;2024-02-23T07:08:15;98866.03;;;5.29;100.00
79703;BME280;69172;52.352;5.006;2024-02-23T07:10:42;98855.97;;;5.32;100.00
79703;BME280;69172;52.352;5.006;2024-02-23T07:13:07;98863.78;;;5.35;100.00
79703;BME280;69172;52.352;5.006;2024-02-23T07:15:33;98866.56;;;5.41;100.00
79703;BME280;69172;52.352;5.006;2024-02-23T07:18:00;98864.00;;;5.41;100.00
79703;BME280;69172;52.352;5.006;2024-02-23T07:20:27;98859.94;;;5.45;100.00
79703;BME280;69172;52.352;5.006;2024-02-23T07:22:52;98852.97;;;5.40;100.00
79703;BME280;69172;52.352;5.006;2024-02-23T07:25:19;98865.97;;;5.47;100.00
79703;BME280;69172;52.352;5.006;2024-02-23T07:27:48;98859.94;;;5.45;100.00
79703;BME280;69172;52.352;5.006;2024-02-23T07:30:14;98853.34;;;5.50;100.00
79703;BME280;69172;52.352;5.006;2024-02-23T07:32:40;98843.28;;;5.53;100.00
79703;BME280;69172;52.352;5.006;2024-02-23T07:35:07;98851.03;;;5.54;100.00
79703;BME280;69172;52.352;5.006;2024-02-23T07:37:33;98840.00;;;5.55;100.00
79703;BME280;69172;52.352;5.006;2024-02-23T07:39:59;98839.81;;;5.51;100.00
79703;BME280;69172;52.352;5.006;2024-02-23T07:42:24;98847.97;;;5.63;100.00
79703;BME280;69172;52.352;5.006;2024-02-23T07:44:51;98837.59;;;5.58;100.00
79703;BME280;69172;52.352;5.006;2024-02-23T07:47:27;98852.00;;;5.58;100.00
79703;BME280;69172;52.352;5.006;2024-02-23T07:53:05;98848.72;;;5.60;100.00
79703;BME280;69172;52.352;5.006;2024-02-23T07:55:49;98835.47;;;5.69;100.00
79703;BME280;69172;52.352;5.006;2024-02-23T07:58:16;98841.19;;;5.63;100.00
79703;BME280;69172;52.352;5.006;2024-02-23T08:00:46;98837.66;;;5.60;100.00
79703;BME280;69172;52.352;5.006;2024-02-23T08:03:14;98818.25;;;5.63;100.00
79703;BME280;69172;52.352;5.006;2024-02-23T08:05:39;98826.84;;;5.65;100.00
79703;BME280;69172;52.352;5.006;2024-02-23T08:08:05;98825.84;;;5.62;100.00
79703;BME280;69172;52.352;5.006;2024-02-23T08:10:32;98823.22;;;5.60;100.00
79703;BME280;69172;52.352;5.006;2024-02-23T08:12:59;98817.94;;;5.56;100.00
79703;BME280;69172;52.352;5.006;2024-02-23T08:15:24;98824.84;;;5.58;100.00
79703;BME280;69172;52.352;5.006;2024-02-23T08:17:49;98813.09;;;5.62;100.00
79703;BME280;69172;52.352;5.006;2024-02-23T08:20:15;98817.19;;;5.58;100.00
79703;BME280;69172;52.352;5.006;2024-02-23T08:22:40;98817.78;;;5.53;100.00
79703;BME280;69172;52.352;5.006;2024-02-23T08:25:06;98815.13;;;5.50;100.00
79703;BME280;69172;52.352;5.006;2024-02-23T08:27:33;98816.78;;;5.49;100.00
79703;BME280;69172;52.352;5.006;2024-02-23T08:29:59;98815.13;;;5.30;100.00
79703;BME280;69172;52.352;5.006;2024-02-23T08:32:24;98815.06;;;5.10;100.00
79703;BME280;69172;52.352;5.006;2024-02-23T08:34:50;98811.38;;;5.03;100.00
79703;BME280;69172;52.352;5.006;2024-02-23T08:37:18;98810.56;;;4.85;100.00
79703;BME280;69172;52.352;5.006;2024-02-23T08:39:43;98814.47;;;4.96;100.00
79703;BME280;69172;52.352;5.006;2024-02-23T08:42:10;98819.09;;;5.05;100.00
79703;BME280;69172;52.352;5.006;2024-02-23T08:44:41;98809.19;;;5.11;100.00
79703;BME280;69172;52.352;5.006;2024-02-23T08:47:07;98807.44;;;5.10;100.00
79703;BME280;69172;52.352;5.006;2024-02-23T08:49:32;98800.53;;;5.26;100.00
79703;BME280;69172;52.352;5.006;2024-02-23T08:51:59;98799.84;;;5.30;100.00
79703;BME280;69172;52.352;5.006;2024-02-23T08:54:24;98788.50;;;5.43;100.00
79703;BME280;69172;52.352;5.006;2024-02-23T08:56:50;98801.22;;;5.62;100.00
79703;BME280;69172;52.352;5.006;2024-02-23T08:59:16;98788.47;;;5.62;100.00
79703;BME280;69172;52.352;5.006;2024-02-23T09:01:41;98800.22;;;5.59;100.00
79703;BME280;69172;52.352;5.006;2024-02-23T09:04:07;98798.16;;;5.50;100.00
79703;BME280;69172;52.352;5.006;2024-02-23T09:06:33;98804.53;;;5.40;100.00
79703;BME280;69172;52.352;5.006;2024-02-23T09:08:59;98780.47;;;5.34;100.00
79703;BME280;69172;52.352;5.006;2024-02-23T09:11:24;98805.53;;;5.44;100.00
79703;BME280;69172;52.352;5.006;2024-02-23T09:13:50;98807.56;;;5.32;100.00
79703;BME280;69172;52.352;5.006;2024-02-23T09:16:23;98798.84;;;5.27;100.00
79703;BME280;69172;52.352;5.006;2024-02-23T09:19:09;98784.09;;;5.20;100.00
79703;BME280;69172;52.352;5.006;2024-02-23T09:21:37;98790.72;;;5.35;100.00
79703;BME280;69172;52.352;5.006;2024-02-23T09:27:38;98819.91;;;5.23;100.00
79703;BME280;69172;52.352;5.006;2024-02-23T09:30:10;98810.16;;;5.14;100.00
79703;BME280;69172;52.352;5.006;2024-02-23T09:32:37;98809.16;;;5.30;100.00
79703;BME280;69172;52.352;5.006;2024-02-23T09:35:02;98812.06;;;5.37;100.00
79703;BME280;69172;52.352;5.006;2024-02-23T09:37:29;98805.19;;;5.56;100.00
79703;BME280;69172;52.352;5.006;2024-02-23T09:39:54;98800.41;;;5.63;100.00
79703;BME280;69172;52.352;5.006;2024-02-23T09:42:22;98810.59;;;5.63;100.00
79703;BME280;69172;52.352;5.006;2024-02-23T09:44:57;98813.41;;;5.69;100.00
79703;BME280;69172;52.352;5.006;2024-02-23T09:47:25;98800.25;;;5.60;100.00
79703;BME280;69172;52.352;5.006;2024-02-23T09:49:52;98805.81;;;5.71;100.00
79703;BME280;69172;52.352;5.006;2024-02-23T09:52:19;98816.25;;;5.56;100.00
79703;BME280;69172;52.352;5.006;2024-02-23T09:54:46;98837.84;;;5.64;100.00
79703;BME280;69172;52.352;5.006;2024-02-23T09:57:15;98819.38;;;5.70;100.00
79703;BME280;69172;52.352;5.006;2024-02-23T09:59:42;98826.56;;;5.78;100.00
79703;BME280;69172;52.352;5.006;2024-02-23T10:02:08;98813.44;;;5.90;100.00
79703;BME280;69172;52.352;5.006;2024-02-23T10:04:38;98831.88;;;5.84;100.00
79703;BME280;69172;52.352;5.006;2024-02-23T10:07:07;98832.88;;;5.86;100.00
79703;BME280;69172;52.352;5.006;2024-02-23T10:09:32;98825.66;;;5.97;100.00
79703;BME280;69172;52.352;5.006;2024-02-23T10:12:03;98818.00;;;5.97;100.00
79703;BME280;69172;52.352;5.006;2024-02-23T10:14:28;98838.72;;;6.05;100.00
79703;BME280;69172;52.352;5.006;2024-02-23T10:16:54;98822.53;;;6.04;100.00
79703;BME280;69172;52.352;5.006;2024-02-23T10:19:21;98844.63;;;6.04;100.00
79703;BME280;69172;52.352;5.006;2024-02-23T10:21:46;98821.88;;;6.08;100.00
79703;BME280;69172;52.352;5.006;2024-02-23T10:24:12;98821.25;;;6.14;100.00
79703;BME280;69172;52.352;5.006;2024-02-23T10:26:39;98830.44;;;6.31;100.00
79703;BME280;69172;52.352;5.006;2024-02-23T10:29:05;98825.44;;;6.34;100.00
79703;BME280;69172;52.352;5.006;2024-02-23T10:31:35;98830.94;;;6.43;100.00
79703;BME280;69172;52.352;5.006;2024-02-23T10:34:09;98847.16;;;6.45;100.00
79703;BME280;69172;52.352;5.006;2024-02-23T10:36:43;98848.56;;;6.37;100.00
79703;BME280;69172;52.352;5.006;2024-02-23T10:39:10;98868.97;;;6.37;100.00
79703;BME280;69172;52.352;5.006;2024-02-23T10:41:37;98853.66;;;6.37;100.00
79703;BME280;69172;52.352;5.006;2024-02-23T10:44:05;98851.94;;;6.36;100.00
79703;BME280;69172;52.352;5.006;2024-02-23T10:46:32;98860.22;;;6.52;100.00
79703;BME280;69172;52.352;5.006;2024-02-23T10:48:58;98855.84;;;6.48;100.00
79703;BME280;69172;52.352;5.006;2024-02-23T10:51:28;98868.22;;;6.60;100.00
79703;BME280;69172;52.352;5.006;2024-02-23T10:53:58;98867.41;;;6.83;100.00
79703;BME280;69172;52.352;5.006;2024-02-23T10:56:25;98873.41;;;6.84;100.00
79703;BME280;69172;52.352;5.006;2024-02-23T10:58:54;98846.84;;;6.80;100.00
79703;BME280;69172;52.352;5.006;2024-02-23T11:01:21;98875.09;;;6.83;100.00
79703;BME280;69172;52.352;5.006;2024-02-23T11:03:48;98875.59;;;6.97;100.00
79703;BME280;69172;52.352;5.006;2024-02-23T11:06:17;98871.28;;;6.96;100.00
79703;BME280;69172;52.352;5.006;2024-02-23T11:08:47;98877.53;;;7.02;100.00
79703;BME280;69172;52.352;5.006;2024-02-23T11:11:16;98877.94;;;7.13;100.00
79703;BME280;69172;52.352;5.006;2024-02-23T11:13:44;98904.81;;;7.26;100.00
79703;BME280;69172;52.352;5.006;2024-02-23T11:16:09;98901.41;;;7.25;100.00
79703;BME280;69172;52.352;5.006;2024-02-23T11:18:39;98879.69;;;7.38;100.00
79703;BME280;69172;52.352;5.006;2024-02-23T11:21:05;98884.94;;;7.41;100.00
79703;BME280;69172;52.352;5.006;2024-02-23T11:23:41;98892.22;;;7.30;100.00
79703;BME280;69172;52.352;5.006;2024-02-23T11:26:12;98886.19;;;7.28;100.00
79703;BME280;69172;52.352;5.006;2024-02-23T11:28:47;98869.50;;;7.39;100.00
79703;BME280;69172;52.352;5.006;2024-02-23T11:31:19;98905.16;;;7.35;100.00
79703;BME280;69172;52.352;5.006;2024-02-23T11:33:54;98911.78;;;7.30;100.00
79703;BME280;69172;52.352;5.006;2024-02-23T11:36:30;98901.44;;;7.27;100.00
79703;BME280;69172;52.352;5.006;2024-02-23T11:38:58;98930.44;;;7.27;100.00
79703;BME280;69172;52.352;5.006;2024-02-23T11:41:25;98924.69;;;7.33;100.00
79703;BME280;69172;52.352;5.006;2024-02-23T11:43:53;98919.69;;;7.36;100.00
79703;BME280;69172;52.352;5.006;2024-02-23T11:46:19;98908.59;;;7.35;100.00
79703;BME280;69172;52.352;5.006;2024-02-23T11:48:45;98918.94;;;7.38;100.00
79703;BME280;69172;52.352;5.006;2024-02-23T11:51:23;98926.50;;;7.59;100.00
79703;BME280;69172;52.352;5.006;2024-02-23T11:54:10;98937.69;;;7.61;100.00
79703;BME280;69172;52.352;5.006;2024-02-23T12:20:37;98948.09;;;7.89;100.00
79703;BME280;69172;52.352;5.006;2024-02-23T12:23:05;98937.47;;;7.78;100.00
79703;BME280;69172;52.352;5.006;2024-02-23T12:25:34;98931.28;;;7.96;100.00
79703;BME280;69172;52.352;5.006;2024-02-23T12:27:59;98941.78;;;8.03;100.00
79703;BME280;69172;52.352;5.006;2024-02-23T12:30:30;98947.53;;;7.98;100.00
79703;BME280;69172;52.352;5.006;2024-02-23T12:33:23;98961.00;;;7.92;100.00
79703;BME280;69172;52.352;5.006;2024-02-23T12:35:48;98944.66;;;7.89;100.00
79703;BME280;69172;52.352;5.006;2024-02-23T12:38:14;98953.06;;;7.85;100.00
79703;BME280;69172;52.352;5.006;2024-02-23T12:40:39;98948.22;;;7.94;100.00
79703;BME280;69172;52.352;5.006;2024-02-23T12:43:05;98950.78;;;7.94;100.00
79703;BME280;69172;52.352;5.006;2024-02-23T12:45:30;98954.19;;;7.93;100.00
79703;BME280;69172;52.352;5.006;2024-02-23T12:47:56;98940.38;;;7.88;100.00
79703;BME280;69172;52.352;5.006;2024-02-23T12:50:21;98958.31;;;7.89;100.00
79703;BME280;69172;52.352;5.006;2024-02-23T12:52:47;98970.53;;;7.96;100.00
79703;BME280;69172;52.352;5.006;2024-02-23T12:55:13;98948.31;;;7.95;100.00
79703;BME280;69172;52.352;5.006;2024-02-23T12:57:39;98983.72;;;8.07;100.00
79703;BME280;69172;52.352;5.006;2024-02-23T13:00:05;98971.09;;;8.13;100.00
79703;BME280;69172;52.352;5.006;2024-02-23T13:02:34;98965.34;;;7.95;100.00
79703;BME280;69172;52.352;5.006;2024-02-23T13:05:00;98972.97;;;8.17;100.00
79703;BME280;69172;52.352;5.006;2024-02-23T13:07:28;98987.72;;;8.24;99.02
79703;BME280;69172;52.352;5.006;2024-02-23T13:09:53;98985.88;;;8.20;98.76
79703;BME280;69172;52.352;5.006;2024-02-23T13:12:19;98978.03;;;8.15;99.41
79703;BME280;69172;52.352;5.006;2024-02-23T13:14:45;98981.97;;;8.06;98.51
79703;BME280;69172;52.352;5.006;2024-02-23T13:17:11;98983.47;;;8.24;98.60
79703;BME280;69172;52.352;5.006;2024-02-23T13:19:37;98985.75;;;8.39;95.54
79703;BME280;69172;52.352;5.006;2024-02-23T13:22:02;98991.00;;;8.20;97.11
79703;BME280;69172;52.352;5.006;2024-02-23T13:24:28;98995.47;;;8.25;96.37
79703;BME280;69172;52.352;5.006;2024-02-23T13:26:53;98987.72;;;8.24;96.02
79703;BME280;69172;52.352;5.006;2024-02-23T13:29:19;98993.78;;;8.26;94.84
79703;BME280;69172;52.352;5.006;2024-02-23T13:31:46;99000.72;;;8.28;95.34
79703;BME280;69172;52.352;5.006;2024-02-23T13:34:13;98995.09;;;8.38;95.13
79703;BME280;69172;52.352;5.006;2024-02-23T13:36:42;98990.25;;;8.46;95.09